createdAt,value
2023-02-01T00:01:25.222Z,9.33
2023-02-01T00:03:53.391Z,10.03
2023-02-01T00:06:21.607Z,6.20
2023-02-01T00:08:49.959Z,7.80
2023-02-01T00:11:19.414Z,8.00
2023-02-01T00:13:48.300Z,8.27
2023-02-01T00:16:18.465Z,12.93
2023-02-01T00:18:48.081Z,8.17
2023-02-01T00:21:19.455Z,9.70
2023-02-01T00:23:48.390Z,10.80
2023-02-01T00:26:21.410Z,9.47
2023-02-01T00:28:50.646Z,9.27
2023-02-01T00:31:18.967Z,7.50
2023-02-01T00:33:48.769Z,11.77
2023-02-01T00:36:17.751Z,12.17
2023-02-01T00:38:45.930Z,10.50
2023-02-01T00:41:16.623Z,15.80
2023-02-01T00:43:46.950Z,5.40
2023-02-01T00:46:17.042Z,11.37
2023-02-01T00:48:45.709Z,6.60
2023-02-01T00:51:15.628Z,12.37
2023-02-01T00:53:44.035Z,6.37
2023-02-01T00:56:12.280Z,9.03
2023-02-01T00:58:41.299Z,10.23
2023-02-01T01:01:13.410Z,13.97
2023-02-01T01:03:43.808Z,8.83
2023-02-01T01:06:13.923Z,9.53
2023-02-01T01:08:43.414Z,7.00
2023-02-01T01:11:15.715Z,10.27
2023-02-01T01:13:44.507Z,12.73
2023-02-01T01:16:14.021Z,6.70
2023-02-01T01:18:42.853Z,11.53
2023-02-01T01:21:13.478Z,8.70
2023-02-01T01:23:41.683Z,8.23
2023-02-01T01:26:11.162Z,11.23
2023-02-01T01:28:39.349Z,4.23
2023-02-01T01:31:10.459Z,9.70
2023-02-01T01:33:40.125Z,8.23
2023-02-01T01:36:12.048Z,9.90
2023-02-01T01:38:41.178Z,7.50
2023-02-01T01:41:10.801Z,8.17
2023-02-01T01:43:52.648Z,9.77
2023-02-01T01:46:23.709Z,7.10
2023-02-01T01:49:02.436Z,9.93
2023-02-01T01:51:34.078Z,7.63
2023-02-01T01:54:06.122Z,4.93
2023-02-01T01:56:36.512Z,6.53
2023-02-01T01:59:06.663Z,9.40
2023-02-01T02:01:34.837Z,10.63
2023-02-01T02:04:05.574Z,6.60
2023-02-01T02:06:41.096Z,5.03
2023-02-01T02:09:09.592Z,5.17
2023-02-01T02:11:37.934Z,10.33
2023-02-01T02:14:08.671Z,9.77
2023-02-01T02:17:08.199Z,12.53
2023-02-01T02:20:10.491Z,6.87
2023-02-01T02:23:23.636Z,4.10
2023-02-01T02:26:24.588Z,4.30
2023-02-01T02:29:49.644Z,12.17
2023-02-01T02:32:46.097Z,12.90
2023-02-01T02:35:25.743Z,8.43
2023-02-01T02:37:58.777Z,6.90
2023-02-01T02:40:35.358Z,8.00
2023-02-01T02:43:30.326Z,9.03
2023-02-01T02:46:32.037Z,7.93
2023-02-01T02:49:04.896Z,10.33
2023-02-01T02:51:57.707Z,12.80
2023-02-01T02:54:48.129Z,9.00
2023-02-01T02:57:39.615Z,8.97
2023-02-01T03:00:29.854Z,8.30
2023-02-01T03:03:15.866Z,9.60
2023-02-01T03:05:46.464Z,11.00
2023-02-01T03:08:20.717Z,12.60
2023-02-01T03:10:55.728Z,13.33
2023-02-01T03:13:32.325Z,10.53
2023-02-01T03:16:06.736Z,10.50
2023-02-01T03:18:41.834Z,4.73
2023-02-01T03:21:15.185Z,6.50
2023-02-01T03:23:46.493Z,7.37
2023-02-01T03:26:19.246Z,9.90
2023-02-01T03:28:51.820Z,4.43
2023-02-01T03:31:20.079Z,6.80
2023-02-01T03:33:48.773Z,13.60
2023-02-01T03:36:26.949Z,14.40
2023-02-01T03:39:03.631Z,6.60
2023-02-01T03:41:39.590Z,18.57
2023-02-01T03:44:14.253Z,20.93
2023-02-01T03:46:48.218Z,10.40
2023-02-01T03:49:28.179Z,17.33
2023-02-01T03:51:58.198Z,16.97
2023-02-01T03:54:29.582Z,12.97
2023-02-01T03:57:01.611Z,19.20
2023-02-01T03:59:31.191Z,12.00
2023-02-01T04:01:59.464Z,10.53
2023-02-01T04:04:27.969Z,10.43
2023-02-01T04:06:58.003Z,7.90
2023-02-01T04:09:27.880Z,17.20
2023-02-01T04:11:56.107Z,8.47
2023-02-01T04:14:24.533Z,13.40
2023-02-01T04:16:52.763Z,8.67
2023-02-01T04:19:21.038Z,17.63
2023-02-01T04:21:49.162Z,10.17
2023-02-01T04:24:17.361Z,21.17
2023-02-01T04:26:46.901Z,13.00
2023-02-01T04:29:15.957Z,6.87
2023-02-01T04:31:44.520Z,9.40
2023-02-01T04:34:12.705Z,15.03
2023-02-01T04:36:40.863Z,8.20
2023-02-01T04:39:11.090Z,9.57
2023-02-01T04:41:39.206Z,11.20
2023-02-01T04:44:11.669Z,12.10
2023-02-01T04:46:39.817Z,9.87
2023-02-01T04:49:10.799Z,8.07
2023-02-01T04:51:39.048Z,15.07
2023-02-01T04:54:08.692Z,10.07
2023-02-01T04:56:36.890Z,12.43
2023-02-01T04:59:05.301Z,10.70
2023-02-01T05:01:34.846Z,12.73
2023-02-01T05:04:03.018Z,12.07
2023-02-01T05:06:31.287Z,14.70
2023-02-01T05:08:59.439Z,11.60
2023-02-01T05:11:45.094Z,9.73
2023-02-01T05:14:13.450Z,14.10
2023-02-01T05:16:43.064Z,8.70
2023-02-01T05:19:11.213Z,3.60
2023-02-01T05:21:39.399Z,10.13
2023-02-01T05:24:13.997Z,6.67
2023-02-01T05:26:43.034Z,17.33
2023-02-01T05:29:12.081Z,9.87
2023-02-01T05:31:40.932Z,21.33
2023-02-01T05:34:10.488Z,9.10
2023-02-01T05:36:38.702Z,12.03
2023-02-01T05:39:06.836Z,12.70
2023-02-01T05:41:35.102Z,14.60
2023-02-01T05:44:03.687Z,12.10
2023-02-01T05:46:31.884Z,10.17
2023-02-01T05:49:00.143Z,16.70
2023-02-01T05:51:29.685Z,10.40
2023-02-01T05:53:57.988Z,12.30
2023-02-01T05:56:26.168Z,11.57
2023-02-01T05:58:54.323Z,12.67
2023-02-01T06:01:22.473Z,7.97
2023-02-01T06:03:50.694Z,12.33
2023-02-01T06:06:19.906Z,12.70
2023-02-01T06:08:49.417Z,20.37
2023-02-01T06:11:31.749Z,9.10
2023-02-01T06:14:00.880Z,15.17
2023-02-01T06:16:29.315Z,14.70
2023-02-01T06:18:57.677Z,13.87
2023-02-01T06:21:25.865Z,13.60
2023-02-01T06:23:55.970Z,13.43
2023-02-01T06:26:24.523Z,20.93
2023-02-01T06:28:52.837Z,12.77
2023-02-01T06:31:21.064Z,14.90
2023-02-01T06:33:49.823Z,25.57
2023-02-01T06:36:19.701Z,12.80
2023-02-01T06:38:47.881Z,11.07
2023-02-01T06:41:17.575Z,6.43
2023-02-01T06:43:46.548Z,17.53
2023-02-01T06:46:15.492Z,18.73
2023-02-01T06:48:43.704Z,12.67
2023-02-01T06:51:22.214Z,16.60
2023-02-01T06:53:50.415Z,16.90
2023-02-01T06:56:20.602Z,13.30
2023-02-01T06:58:49.506Z,21.80
2023-02-01T07:01:18.480Z,27.80
2023-02-01T07:03:49.835Z,16.67
2023-02-01T07:06:18.055Z,17.30
2023-02-01T07:08:46.316Z,14.80
2023-02-01T07:11:16.335Z,21.43
2023-02-01T07:13:46.679Z,19.97
2023-02-01T07:16:17.971Z,14.70
2023-02-01T07:18:46.489Z,12.30
2023-02-01T07:21:15.627Z,13.03
2023-02-01T07:23:43.847Z,22.00
2023-02-01T07:26:14.205Z,11.33
2023-02-01T07:28:42.968Z,8.63
2023-02-01T07:31:16.315Z,13.77
2023-02-01T07:33:44.666Z,13.90
2023-02-01T07:36:15.115Z,15.83
2023-02-01T07:38:43.329Z,8.20
2023-02-01T07:41:12.140Z,13.50
2023-02-01T07:43:40.330Z,10.50
2023-02-01T07:46:08.954Z,8.97
2023-02-01T07:48:38.785Z,12.87
2023-02-01T07:51:10.155Z,12.37
2023-02-01T07:53:39.168Z,12.63
2023-02-01T07:56:13.203Z,19.63
2023-02-01T07:58:41.703Z,19.73
2023-02-01T08:01:21.369Z,17.57
2023-02-01T08:03:52.242Z,19.27
2023-02-01T08:06:21.531Z,16.93
2023-02-01T08:08:50.708Z,14.90
2023-02-01T08:11:19.884Z,16.50
2023-02-01T08:13:48.480Z,9.97
2023-02-01T08:16:18.361Z,19.87
2023-02-01T08:18:47.020Z,15.83
2023-02-01T08:21:18.457Z,19.10
2023-02-01T08:23:47.083Z,12.83
2023-02-01T08:26:19.291Z,13.17
2023-02-01T08:28:50.389Z,9.90
2023-02-01T08:31:21.135Z,12.70
2023-02-01T08:33:52.041Z,17.47
2023-02-01T08:36:24.878Z,11.60
2023-02-01T08:38:53.465Z,10.67
2023-02-01T08:41:23.760Z,9.33
2023-02-01T08:43:52.497Z,16.90
2023-02-01T08:46:20.732Z,11.57
2023-02-01T08:48:49.406Z,8.73
2023-02-01T08:51:19.874Z,5.63
2023-02-01T08:53:50.192Z,7.33
2023-02-01T08:56:19.751Z,9.63
2023-02-01T08:58:47.885Z,7.20
2023-02-01T09:01:17.904Z,4.03
2023-02-01T09:03:46.823Z,7.00
2023-02-01T09:06:16.752Z,4.07
2023-02-01T09:08:45.810Z,5.97
2023-02-01T09:11:17.249Z,7.10
2023-02-01T09:13:45.507Z,4.47
2023-02-01T09:16:14.056Z,7.60
2023-02-01T09:18:50.888Z,7.70
2023-02-01T09:21:30.922Z,6.13
2023-02-01T09:23:59.582Z,10.90
2023-02-01T09:26:32.428Z,7.17
2023-02-01T09:29:01.531Z,17.10
2023-02-01T09:31:29.844Z,5.70
2023-02-01T09:33:58.668Z,10.50
2023-02-01T09:36:28.397Z,7.43
2023-02-01T09:38:58.183Z,7.67
2023-02-01T09:41:40.135Z,2.83
2023-02-01T09:44:19.770Z,11.47
2023-02-01T09:46:48.473Z,5.53
2023-02-01T09:49:23.701Z,7.90
2023-02-01T09:51:54.478Z,10.30
2023-02-01T09:54:26.834Z,5.10
2023-02-01T09:57:00.502Z,4.47
2023-02-01T09:59:35.840Z,8.80
2023-02-01T10:02:07.206Z,4.43
2023-02-01T10:04:35.412Z,4.67
2023-02-01T10:07:14.108Z,6.60
2023-02-01T10:09:54.471Z,2.80
2023-02-01T10:12:57.719Z,3.47
2023-02-01T10:15:46.320Z,2.40
2023-02-01T10:18:31.976Z,5.63
2023-02-01T10:21:08.980Z,7.27
2023-02-01T10:24:16.104Z,4.20
2023-02-01T10:26:49.574Z,2.73
2023-02-01T10:29:21.988Z,3.67
2023-02-01T10:31:50.708Z,7.23
2023-02-01T10:34:23.329Z,3.70
2023-02-01T10:36:56.386Z,6.43
2023-02-01T10:39:25.411Z,4.80
2023-02-01T10:41:53.936Z,1.43
2023-02-01T10:44:26.868Z,4.03
2023-02-01T10:46:55.079Z,6.70
2023-02-01T10:49:31.717Z,1.53
2023-02-01T10:52:07.634Z,2.00
2023-02-01T10:54:39.226Z,1.20
2023-02-01T10:57:10.074Z,3.33
2023-02-01T10:59:39.659Z,2.93
2023-02-01T11:02:28.872Z,1.43
2023-02-01T11:05:03.427Z,3.00
2023-02-01T11:07:32.141Z,4.00
2023-02-01T11:10:00.478Z,2.43
2023-02-01T11:12:31.805Z,1.10
2023-02-01T11:15:05.713Z,2.00
2023-02-01T11:17:37.339Z,6.43
2023-02-01T11:20:14.491Z,8.20
2023-02-01T11:22:48.325Z,1.70
2023-02-01T11:25:19.679Z,2.47
2023-02-01T11:27:54.672Z,2.87
2023-02-01T11:30:33.925Z,3.63
2023-02-01T11:33:05.400Z,10.20
2023-02-01T11:35:39.515Z,4.20
2023-02-01T11:38:16.579Z,8.20
2023-02-01T11:40:44.867Z,7.23
2023-02-01T11:43:19.101Z,3.57
2023-02-01T11:45:58.432Z,3.80
2023-02-01T11:48:28.445Z,2.20
2023-02-01T11:51:06.917Z,4.37
2023-02-01T11:53:49.476Z,5.80
2023-02-01T11:56:25.185Z,5.60
2023-02-01T11:59:10.533Z,4.40
2023-02-01T12:02:04.895Z,3.87
2023-02-01T12:05:07.707Z,10.00
2023-02-01T12:08:01.505Z,4.93
2023-02-01T12:10:38.629Z,6.90
2023-02-01T12:13:21.548Z,2.67
2023-02-01T12:16:03.687Z,3.90
2023-02-01T12:19:03.190Z,5.13
2023-02-01T12:21:55.088Z,2.30
2023-02-01T12:24:40.419Z,6.73
2023-02-01T12:27:23.228Z,3.50
2023-02-01T12:30:12.600Z,4.63
2023-02-01T12:32:53.350Z,4.83
2023-02-01T12:35:40.751Z,2.43
2023-02-01T12:38:25.248Z,4.93
2023-02-01T12:41:07.828Z,9.00
2023-02-01T12:43:42.826Z,5.17
2023-02-01T12:46:17.246Z,7.43
2023-02-01T12:48:56.923Z,5.10
2023-02-01T12:51:30.623Z,10.20
2023-02-01T12:54:04.672Z,4.97
2023-02-01T12:56:37.598Z,6.37
2023-02-01T12:59:13.722Z,6.43
2023-02-01T13:01:48.443Z,6.60
2023-02-01T13:04:22.632Z,4.80
2023-02-01T13:06:58.049Z,4.80
2023-02-01T13:09:29.446Z,2.80
2023-02-01T13:12:01.834Z,4.57
2023-02-01T13:14:37.528Z,2.43
2023-02-01T13:17:12.374Z,8.67
2023-02-01T13:19:47.862Z,2.73
2023-02-01T13:22:21.529Z,2.80
2023-02-01T13:24:53.815Z,10.07
2023-02-01T13:27:22.166Z,3.63
2023-02-01T13:29:57.761Z,0.73
2023-02-01T13:32:57.010Z,2.10
2023-02-01T13:35:54.500Z,3.13
2023-02-01T13:38:52.538Z,1.00
2023-02-01T13:41:29.449Z,1.13
2023-02-01T13:44:02.474Z,1.37
2023-02-01T13:46:32.566Z,1.27
2023-02-01T13:49:04.166Z,2.03
2023-02-01T13:51:39.522Z,2.10
2023-02-01T13:54:09.301Z,3.13
2023-02-01T13:56:45.704Z,0.60
2023-02-01T13:59:53.618Z,1.97
2023-02-01T14:02:50.385Z,2.60
2023-02-01T14:05:56.031Z,1.23
2023-02-01T14:08:38.652Z,6.80
2023-02-01T14:11:08.546Z,1.30
2023-02-01T14:13:38.220Z,1.00
2023-02-01T14:16:15.896Z,2.00
2023-02-01T14:19:01.796Z,3.17
2023-02-01T14:21:33.046Z,2.83
2023-02-01T14:24:03.825Z,5.33
2023-02-01T14:26:47.776Z,3.07
2023-02-01T14:29:27.327Z,1.97
2023-02-01T14:32:04.025Z,2.20
2023-02-01T14:34:38.722Z,4.70
2023-02-01T14:37:09.492Z,2.70
2023-02-01T14:39:58.829Z,9.50
2023-02-01T14:42:31.735Z,4.73
2023-02-01T14:45:33.417Z,7.70
2023-02-01T14:48:36.959Z,13.27
2023-02-01T14:51:08.452Z,24.30
2023-02-01T14:53:37.790Z,16.00
2023-02-01T14:56:12.756Z,29.10
2023-02-01T14:58:47.380Z,5.57
2023-02-01T15:01:20.003Z,4.10
2023-02-01T15:03:57.447Z,8.00
2023-02-01T15:06:33.056Z,6.50
2023-02-01T15:09:05.312Z,6.90
2023-02-01T15:11:33.524Z,8.07
2023-02-01T15:14:03.030Z,4.30
2023-02-01T15:16:31.147Z,4.87
2023-02-01T15:19:15.650Z,4.10
2023-02-01T15:21:47.305Z,4.10
2023-02-01T15:24:20.473Z,3.43
2023-02-01T15:26:49.136Z,3.50
2023-02-01T15:29:19.377Z,9.13
2023-02-01T15:31:49.990Z,10.93
2023-02-01T15:34:18.768Z,9.90
2023-02-01T15:37:01.648Z,12.20
2023-02-01T15:39:32.517Z,11.00
2023-02-01T15:42:10.754Z,11.57
2023-02-01T15:44:43.534Z,6.27
2023-02-01T15:47:17.613Z,6.13
2023-02-01T15:49:49.670Z,23.93
2023-02-01T15:52:26.820Z,6.20
2023-02-01T15:54:58.619Z,10.13
2023-02-01T15:57:32.372Z,7.10
2023-02-01T16:00:05.219Z,5.43
2023-02-01T16:02:45.910Z,19.47
2023-02-01T16:05:33.200Z,18.30
2023-02-01T16:08:05.695Z,10.83
2023-02-01T16:10:39.847Z,6.20
2023-02-01T16:13:08.091Z,8.80
2023-02-01T16:15:37.630Z,4.30
2023-02-01T16:18:05.962Z,3.93
2023-02-01T16:20:36.217Z,4.67
2023-02-01T16:23:05.083Z,2.83
2023-02-01T16:25:33.293Z,2.97
2023-02-01T16:28:01.517Z,4.80
2023-02-01T16:30:29.992Z,2.60
2023-02-01T16:33:03.531Z,5.30
2023-02-01T16:35:37.056Z,1.00
2023-02-01T16:38:09.650Z,5.80
2023-02-01T16:40:37.968Z,1.40
2023-02-01T16:43:13.638Z,1.10
2023-02-01T16:45:43.425Z,2.10
2023-02-01T16:48:21.301Z,1.77
2023-02-01T16:50:51.741Z,2.00
2023-02-01T16:53:20.939Z,1.67
2023-02-01T16:55:50.446Z,2.53
2023-02-01T16:58:18.912Z,0.90
2023-02-01T17:00:48.844Z,0.80
2023-02-01T17:03:20.049Z,1.50
2023-02-01T17:05:52.269Z,1.23
2023-02-01T17:08:24.493Z,1.97
2023-02-01T17:10:52.673Z,1.33
2023-02-01T17:13:20.844Z,0.90
2023-02-01T17:15:55.583Z,1.23
2023-02-01T17:18:25.984Z,1.67
2023-02-01T17:20:54.174Z,1.83
2023-02-01T17:23:22.496Z,1.10
2023-02-01T17:25:50.717Z,0.80
2023-02-01T17:28:18.884Z,0.50
2023-02-01T17:30:47.279Z,0.97
2023-02-01T17:33:36.147Z,0.97
2023-02-01T17:36:07.142Z,0.70
2023-02-01T17:38:35.590Z,0.70
2023-02-01T17:41:03.864Z,1.87
2023-02-01T17:43:32.055Z,1.07
2023-02-01T17:46:05.203Z,1.53
2023-02-01T17:48:34.718Z,1.70
2023-02-01T17:51:02.972Z,4.33
2023-02-01T17:53:31.482Z,0.87
2023-02-01T17:55:59.717Z,1.70
2023-02-01T17:58:30.398Z,1.47
2023-02-01T18:00:58.774Z,1.03
2023-02-01T18:03:30.004Z,1.80
2023-02-01T18:05:59.676Z,1.10
2023-02-01T18:11:17.933Z,4.87
2023-02-01T18:13:47.224Z,0.90
2023-02-01T18:16:20.641Z,3.30
2023-02-01T18:18:49.981Z,2.10
2023-02-01T18:21:23.611Z,4.30
2023-02-01T18:23:51.860Z,1.63
2023-02-01T18:26:20.291Z,5.43
2023-02-01T18:28:48.692Z,2.80
2023-02-01T18:31:23.179Z,3.83
2023-02-01T18:33:52.371Z,3.37
2023-02-01T18:36:23.071Z,2.57
2023-02-01T18:38:51.534Z,2.67
2023-02-01T18:41:23.141Z,5.00
2023-02-01T18:43:52.767Z,8.77
2023-02-01T18:46:21.719Z,7.37
2023-02-01T18:48:50.264Z,4.87
2023-02-01T18:51:20.882Z,3.63
2023-02-01T18:53:50.454Z,5.97
2023-02-01T18:56:19.262Z,2.80
2023-02-01T18:58:47.781Z,1.37
2023-02-01T19:01:18.561Z,3.70
2023-02-01T19:04:02.883Z,4.20
2023-02-01T19:06:36.821Z,2.13
2023-02-01T19:09:06.509Z,8.33
2023-02-01T19:11:34.813Z,1.67
2023-02-01T19:14:03.314Z,3.97
2023-02-01T19:16:31.805Z,2.20
2023-02-01T19:19:00.117Z,8.73
2023-02-01T19:21:28.293Z,5.70
2023-02-01T19:23:56.423Z,10.77
2023-02-01T19:26:26.000Z,4.47
2023-02-01T19:28:54.481Z,6.17
2023-02-01T19:31:22.757Z,10.63
2023-02-01T19:33:51.321Z,4.50
2023-02-01T19:36:19.519Z,7.07
2023-02-01T19:38:47.962Z,6.07
2023-02-01T19:41:16.122Z,4.50
2023-02-01T19:43:45.744Z,12.13
2023-02-01T19:46:14.090Z,7.63
2023-02-01T19:48:42.277Z,4.23
2023-02-01T19:51:10.450Z,3.87
2023-02-01T19:53:38.585Z,3.50
2023-02-01T19:56:07.092Z,14.63
2023-02-01T19:58:35.273Z,6.33
2023-02-01T20:01:05.976Z,11.17
2023-02-01T20:03:34.153Z,10.03
2023-02-01T20:06:02.675Z,18.87
2023-02-01T20:08:30.914Z,8.27
2023-02-01T20:10:59.086Z,16.03
2023-02-01T20:13:27.527Z,10.93
2023-02-01T20:15:59.727Z,12.73
2023-02-01T20:18:29.447Z,5.47
2023-02-01T20:20:58.169Z,6.53
2023-02-01T20:23:28.149Z,7.30
2023-02-01T20:26:02.500Z,7.37
2023-02-01T20:28:31.137Z,16.90
2023-02-01T20:30:59.624Z,8.20
2023-02-01T20:33:28.988Z,6.73
2023-02-01T20:35:58.813Z,5.50
2023-02-01T20:38:27.265Z,7.10
2023-02-01T20:41:03.541Z,5.17
2023-02-01T20:43:31.905Z,7.63
2023-02-01T20:46:00.194Z,8.90
2023-02-01T20:48:29.143Z,20.43
2023-02-01T20:50:59.707Z,5.63
2023-02-01T20:53:27.917Z,7.20
2023-02-01T20:55:57.797Z,3.90
2023-02-01T20:58:26.606Z,13.17
2023-02-01T21:00:55.837Z,10.03
2023-02-01T21:03:24.469Z,9.03
2023-02-01T21:05:54.475Z,6.20
2023-02-01T21:08:24.839Z,7.70
2023-02-01T21:10:58.583Z,7.53
2023-02-01T21:13:28.301Z,10.10
2023-02-01T21:15:56.454Z,12.27
2023-02-01T21:18:24.916Z,10.37
2023-02-01T21:20:53.105Z,12.83
2023-02-01T21:23:21.547Z,11.60
2023-02-01T21:25:51.072Z,16.37
2023-02-01T21:28:19.220Z,10.83
2023-02-01T21:30:47.394Z,4.77
2023-02-01T21:33:15.704Z,8.30
2023-02-01T21:35:43.873Z,7.73
2023-02-01T21:38:12.233Z,16.13
2023-02-01T21:40:40.481Z,8.03
2023-02-01T21:43:10.053Z,9.63
2023-02-01T21:45:43.557Z,5.50
2023-02-01T21:48:12.009Z,8.23
2023-02-01T21:50:40.231Z,8.83
2023-02-01T21:53:08.561Z,13.20
2023-02-01T21:55:36.735Z,8.93
2023-02-01T21:58:12.498Z,16.90
2023-02-01T22:00:45.660Z,5.20
2023-02-01T22:03:14.765Z,5.70
2023-02-01T22:05:43.300Z,6.57
2023-02-01T22:08:11.476Z,11.90
2023-02-01T22:10:39.991Z,8.07
2023-02-01T22:13:09.200Z,17.47
2023-02-01T22:15:38.617Z,12.57
2023-02-01T22:18:08.405Z,6.90
2023-02-01T22:20:36.633Z,7.10
2023-02-01T22:23:04.844Z,6.33
2023-02-01T22:25:35.170Z,7.00
2023-02-01T22:28:30.355Z,9.37
2023-02-01T22:31:05.536Z,6.47
2023-02-01T22:33:35.302Z,8.03
2023-02-01T22:36:04.964Z,9.27
2023-02-01T22:38:34.996Z,8.80
2023-02-01T22:41:06.530Z,7.80
2023-02-01T22:43:35.461Z,5.70
2023-02-01T22:46:08.074Z,3.00
2023-02-01T22:48:39.488Z,5.33
2023-02-01T22:51:10.005Z,7.47
2023-02-01T22:53:38.146Z,12.20
2023-02-01T22:56:08.384Z,4.70
2023-02-01T22:58:37.822Z,8.23
2023-02-01T23:01:08.420Z,5.43
2023-02-01T23:03:38.595Z,6.43
2023-02-01T23:06:08.513Z,5.17
2023-02-01T23:08:39.331Z,6.40
2023-02-01T23:11:10.064Z,3.23
2023-02-01T23:13:40.007Z,7.87
2023-02-01T23:16:10.270Z,10.03
2023-02-01T23:18:40.927Z,5.20
2023-02-01T23:21:11.191Z,4.93
2023-02-01T23:23:39.665Z,4.93
2023-02-01T23:26:08.039Z,8.30
2023-02-01T23:28:36.336Z,5.90
2023-02-01T23:31:09.158Z,3.17
2023-02-01T23:33:38.575Z,4.10
2023-02-01T23:36:15.864Z,12.07
2023-02-01T23:38:44.785Z,11.90
2023-02-01T23:41:15.577Z,7.10
2023-02-01T23:43:59.363Z,6.43
2023-02-01T23:46:31.203Z,6.20
2023-02-01T23:49:00.462Z,6.33
2023-02-01T23:51:30.958Z,7.33
2023-02-01T23:54:00.095Z,8.60
2023-02-01T23:56:31.267Z,2.80
2023-02-01T23:59:00.677Z,2.83
